createdAt,value
2022-08-20T00:05:01.245Z,24.34
2022-08-20T00:15:07.072Z,24.16
2022-08-20T00:25:12.600Z,23.40
2022-08-20T00:35:16.760Z,22.94
2022-08-20T00:45:22.396Z,23.86
2022-08-20T00:55:31.087Z,24.06
2022-08-20T01:05:36.541Z,24.25
2022-08-20T01:15:43.380Z,24.20
2022-08-20T01:25:50.315Z,23.88
2022-08-20T01:35:54.760Z,23.98
2022-08-20T01:45:59.533Z,23.76
2022-08-20T01:56:04.596Z,24.00
2022-08-20T02:06:10.475Z,23.83
2022-08-20T02:16:14.310Z,23.79
2022-08-20T02:26:19.467Z,23.77
2022-08-20T02:36:22.764Z,23.72
2022-08-20T02:46:28.369Z,23.07
2022-08-20T02:56:32.427Z,23.34
2022-08-20T03:06:37.012Z,23.60
2022-08-20T03:16:40.227Z,23.60
2022-08-20T03:26:45.013Z,23.54
2022-08-20T03:36:48.129Z,23.66
2022-08-20T03:46:52.627Z,23.33
2022-08-20T03:56:56.262Z,23.50
2022-08-20T04:07:00.837Z,23.55
2022-08-20T04:17:06.615Z,22.51
2022-08-20T04:27:11.904Z,23.11
2022-08-20T04:37:16.895Z,23.53
2022-08-20T04:47:25.375Z,21.64
2022-08-20T04:57:38.790Z,23.23
2022-08-20T05:07:45.826Z,23.70
2022-08-20T05:17:50.263Z,23.78
2022-08-20T05:28:00.615Z,24.00
2022-08-20T05:38:04.053Z,23.97
2022-08-20T05:48:10.713Z,24.24
2022-08-20T05:58:18.653Z,24.46
2022-08-20T06:08:24.216Z,24.49
2022-08-20T06:18:28.860Z,25.42
2022-08-20T06:28:33.529Z,24.50
2022-08-20T06:38:38.766Z,24.96
2022-08-20T06:48:43.551Z,26.07
2022-08-20T06:58:46.794Z,26.36
2022-08-20T07:08:51.387Z,25.79
2022-08-20T07:18:54.685Z,26.49
2022-08-20T07:28:59.324Z,27.00
2022-08-20T07:39:05.825Z,26.34
2022-08-20T07:49:10.834Z,26.82
2022-08-20T07:59:15.374Z,26.69
2022-08-20T08:09:19.986Z,26.83
2022-08-20T08:19:23.238Z,26.69
2022-08-20T08:29:27.743Z,26.44
2022-08-20T08:39:34.615Z,25.87
2022-08-20T08:49:39.770Z,25.89
2022-08-20T08:59:52.204Z,25.01
2022-08-20T09:10:08.554Z,25.11
2022-08-20T09:20:12.576Z,25.02
2022-08-20T09:30:18.540Z,24.63
2022-08-20T09:40:22.664Z,24.25
2022-08-20T09:50:31.894Z,23.98
2022-08-20T10:00:35.255Z,23.65
2022-08-20T10:10:39.980Z,24.04
2022-08-20T10:20:43.366Z,24.29
2022-08-20T10:30:48.717Z,24.07
2022-08-20T10:40:52.579Z,23.75
2022-08-20T10:50:57.399Z,24.52
2022-08-20T11:01:00.616Z,24.34
2022-08-20T11:11:05.903Z,23.31
2022-08-20T11:21:09.199Z,22.85
2022-08-20T11:31:13.765Z,23.23
2022-08-20T11:41:16.949Z,23.92
2022-08-20T11:51:21.480Z,24.00
2022-08-20T12:01:24.694Z,24.50
2022-08-20T12:11:34.553Z,24.94
2022-08-20T12:21:40.592Z,24.95
2022-08-20T12:31:48.442Z,25.00
2022-08-20T12:41:51.584Z,25.02
2022-08-20T12:51:56.141Z,25.26
2022-08-20T13:01:59.770Z,24.90
2022-08-20T13:12:18.684Z,24.82
2022-08-20T13:22:21.846Z,24.85
2022-08-20T13:32:26.556Z,25.07
2022-08-20T13:42:29.893Z,24.96
2022-08-20T13:52:35.402Z,25.12
2022-08-20T14:02:38.688Z,25.30
2022-08-20T14:12:43.244Z,25.46
2022-08-20T14:22:46.989Z,25.32
2022-08-20T14:33:00.686Z,25.50
2022-08-20T14:43:04.099Z,25.52
2022-08-20T14:53:09.163Z,25.34
2022-08-20T15:03:13.399Z,25.28
2022-08-20T15:13:18.232Z,25.04
2022-08-20T15:23:21.712Z,25.21
2022-08-20T15:33:26.303Z,25.62
2022-08-20T15:43:29.938Z,25.68
2022-08-20T15:53:38.946Z,25.74
2022-08-20T16:04:12.284Z,25.73
2022-08-20T16:14:19.120Z,26.03
2022-08-20T16:24:22.524Z,25.68
2022-08-20T16:34:36.544Z,25.62
2022-08-20T16:44:41.975Z,25.66
2022-08-20T16:54:46.708Z,25.57
2022-08-20T17:04:58.506Z,25.33
2022-08-20T17:15:04.552Z,25.12
2022-08-20T17:25:14.276Z,24.96
2022-08-20T17:35:28.947Z,24.77
2022-08-20T17:45:37.386Z,24.71
2022-08-20T17:55:42.525Z,24.39
2022-08-20T18:05:46.816Z,24.17
2022-08-20T18:15:57.257Z,23.89
2022-08-20T18:26:04.102Z,23.97
2022-08-20T18:36:11.446Z,23.75
2022-08-20T18:46:23.555Z,23.72
2022-08-20T18:56:41.513Z,23.73
2022-08-20T19:06:49.425Z,23.48
2022-08-20T19:16:59.017Z,23.44
2022-08-20T19:27:05.078Z,23.35
2022-08-20T19:37:35.762Z,23.39
2022-08-20T19:47:53.185Z,23.23
2022-08-20T19:57:59.828Z,22.99
2022-08-20T20:08:05.455Z,22.63
2022-08-20T20:18:10.576Z,22.57
2022-08-20T20:28:18.832Z,21.74
2022-08-20T20:38:28.195Z,22.24
2022-08-20T20:48:44.002Z,22.73
2022-08-20T20:58:55.543Z,22.68
2022-08-20T21:09:00.059Z,22.39
2022-08-20T21:19:06.339Z,22.76
2022-08-20T21:29:11.170Z,23.03
2022-08-20T21:39:15.763Z,23.18
2022-08-20T21:49:19.586Z,23.08
2022-08-20T21:59:24.990Z,22.54
2022-08-20T22:09:28.338Z,22.70
2022-08-20T22:19:33.062Z,23.18
2022-08-20T22:29:36.244Z,23.29
2022-08-20T22:39:40.801Z,23.26
2022-08-20T22:49:44.387Z,23.03
2022-08-20T22:59:52.035Z,23.05
2022-08-20T23:09:56.649Z,22.95
2022-08-20T23:20:01.617Z,23.05
2022-08-20T23:30:05.922Z,23.04
2022-08-20T23:40:12.198Z,23.20
2022-08-20T23:50:17.959Z,23.07
